createdAt,value
2017-07-16T00:00:38.757Z,3.83
2017-07-16T00:03:11.116Z,3.83
2017-07-16T00:05:43.520Z,3.10
2017-07-16T00:08:15.945Z,3.63
2017-07-16T00:10:48.237Z,3.90
2017-07-16T00:13:20.577Z,3.40
2017-07-16T00:15:52.989Z,5.33
2017-07-16T00:18:25.355Z,3.20
2017-07-16T00:20:57.738Z,3.13
2017-07-16T00:23:30.063Z,3.70
2017-07-16T00:26:02.602Z,3.90
2017-07-16T00:28:34.854Z,2.70
2017-07-16T00:31:07.209Z,4.43
2017-07-16T00:33:39.581Z,3.97
2017-07-16T00:36:11.998Z,5.20
2017-07-16T00:38:44.466Z,3.90
2017-07-16T00:41:16.813Z,3.33
2017-07-16T00:43:49.069Z,6.93
2017-07-16T00:46:21.591Z,3.50
2017-07-16T00:48:53.925Z,3.77
2017-07-16T00:51:26.402Z,4.23
2017-07-16T00:53:58.860Z,5.50
2017-07-16T00:56:31.234Z,4.27
2017-07-16T00:59:03.528Z,4.37
2017-07-16T01:01:35.940Z,3.93
2017-07-16T01:04:08.245Z,5.30
2017-07-16T01:06:40.662Z,4.03
2017-07-16T01:09:13.009Z,4.20
2017-07-16T01:11:45.378Z,3.80
2017-07-16T01:14:17.629Z,6.63
2017-07-16T01:16:50.415Z,4.60
2017-07-16T01:19:22.502Z,4.33
2017-07-16T01:21:54.830Z,4.40
2017-07-16T01:24:27.229Z,5.27
2017-07-16T01:26:59.542Z,5.17
2017-07-16T01:29:31.881Z,4.27
2017-07-16T01:32:04.257Z,4.33
2017-07-16T01:34:36.665Z,4.37
2017-07-16T01:37:09.020Z,4.50
2017-07-16T01:39:41.373Z,5.67
2017-07-16T01:42:13.794Z,4.23
2017-07-16T01:44:46.213Z,4.20
2017-07-16T01:47:18.842Z,4.93
2017-07-16T01:49:51.096Z,3.90
2017-07-16T01:52:24.540Z,4.73
2017-07-16T01:54:56.845Z,4.40
2017-07-16T01:57:29.330Z,4.50
2017-07-16T02:00:01.643Z,4.23
2017-07-16T02:02:34.022Z,4.03
2017-07-16T02:05:06.323Z,3.97
2017-07-16T02:07:38.730Z,5.53
2017-07-16T02:10:11.285Z,3.90
2017-07-16T02:12:43.482Z,4.70
2017-07-16T02:15:15.874Z,4.63
2017-07-16T02:17:48.149Z,4.27
2017-07-16T02:20:20.541Z,4.10
2017-07-16T02:22:52.968Z,6.67
2017-07-16T02:25:25.328Z,4.00
2017-07-16T02:27:57.735Z,4.33
2017-07-16T02:30:30.165Z,4.07
2017-07-16T02:33:02.560Z,4.50
2017-07-16T02:35:34.866Z,4.40
2017-07-16T02:38:07.229Z,4.50
2017-07-16T02:40:39.692Z,4.57
2017-07-16T02:43:13.080Z,4.23
2017-07-16T02:45:45.403Z,4.93
2017-07-16T02:48:17.841Z,4.50
2017-07-16T02:50:50.201Z,4.80
2017-07-16T02:53:22.541Z,4.00
2017-07-16T02:55:54.834Z,4.93
2017-07-16T02:58:27.214Z,4.70
2017-07-16T03:00:59.645Z,4.67
2017-07-16T03:03:31.976Z,5.77
2017-07-16T03:06:04.625Z,4.60
2017-07-16T03:08:36.865Z,5.70
2017-07-16T03:11:09.268Z,6.27
2017-07-16T03:13:41.665Z,4.40
2017-07-16T03:16:13.966Z,4.47
2017-07-16T03:18:46.261Z,4.67
2017-07-16T03:21:18.592Z,5.43
2017-07-16T03:23:50.890Z,4.70
2017-07-16T03:26:23.297Z,4.70
2017-07-16T03:28:55.697Z,5.40
2017-07-16T03:31:28.108Z,5.40
2017-07-16T03:34:01.452Z,5.03
2017-07-16T03:36:34.110Z,5.37
2017-07-16T03:39:06.585Z,5.13
2017-07-16T03:41:38.942Z,5.30
2017-07-16T03:44:11.237Z,5.70
2017-07-16T03:46:43.649Z,4.90
2017-07-16T03:49:16.053Z,6.27
2017-07-16T03:51:48.278Z,5.17
2017-07-16T03:54:20.661Z,5.40
2017-07-16T03:56:52.949Z,5.10
2017-07-16T03:59:25.413Z,5.77
2017-07-16T04:01:57.850Z,5.53
2017-07-16T04:04:30.272Z,7.57
2017-07-16T04:07:02.679Z,6.33
2017-07-16T04:09:35.021Z,5.87
2017-07-16T04:12:07.441Z,5.60
2017-07-16T04:14:40.134Z,6.37
2017-07-16T04:17:12.289Z,6.17
2017-07-16T04:19:44.737Z,5.73
2017-07-16T04:22:17.020Z,6.10
2017-07-16T04:24:49.318Z,5.70
2017-07-16T04:27:21.702Z,5.80
2017-07-16T04:29:54.117Z,6.97
2017-07-16T04:32:26.590Z,6.93
2017-07-16T04:34:58.958Z,5.70
2017-07-16T04:37:31.312Z,6.20
2017-07-16T04:40:03.809Z,5.77
2017-07-16T04:42:36.176Z,5.97
2017-07-16T04:45:08.550Z,5.63
2017-07-16T04:47:40.897Z,6.10
2017-07-16T04:50:13.489Z,6.30
2017-07-16T04:52:45.865Z,7.40
2017-07-16T04:55:18.153Z,5.30
2017-07-16T04:57:50.705Z,5.50
2017-07-16T05:00:23.178Z,5.63
2017-07-16T05:02:55.537Z,5.90
2017-07-16T05:05:27.945Z,5.37
2017-07-16T05:08:00.387Z,6.00
2017-07-16T05:10:33.116Z,6.73
2017-07-16T05:13:05.147Z,6.80
2017-07-16T05:15:37.634Z,5.90
2017-07-16T05:18:10.004Z,6.47
2017-07-16T05:20:42.509Z,6.33
2017-07-16T05:23:14.739Z,7.10
2017-07-16T05:25:47.100Z,8.03
2017-07-16T05:28:19.541Z,6.80
2017-07-16T05:30:51.898Z,6.60
2017-07-16T05:33:24.294Z,5.77
2017-07-16T05:35:56.665Z,6.80
2017-07-16T05:38:29.202Z,6.40
2017-07-16T05:41:01.605Z,6.37
2017-07-16T05:43:34.238Z,6.70
2017-07-16T05:46:06.333Z,7.23
2017-07-16T05:48:38.804Z,6.63
2017-07-16T05:51:11.236Z,7.00
2017-07-16T05:53:43.661Z,7.40
2017-07-16T05:56:16.030Z,7.57
2017-07-16T05:58:48.453Z,9.30
2017-07-16T06:01:21.810Z,7.40
2017-07-16T06:03:54.160Z,7.40
2017-07-16T06:06:26.630Z,7.03
2017-07-16T06:08:58.922Z,7.40
2017-07-16T06:11:31.375Z,6.97
2017-07-16T06:14:04.158Z,7.43
2017-07-16T06:16:36.264Z,6.80
2017-07-16T06:19:08.621Z,6.50
2017-07-16T06:21:41.034Z,7.50
2017-07-16T06:24:13.385Z,7.10
2017-07-16T06:26:45.791Z,7.33
2017-07-16T06:29:18.093Z,7.80
2017-07-16T06:31:50.404Z,8.23
2017-07-16T06:34:22.581Z,8.77
2017-07-16T06:36:55.046Z,9.70
2017-07-16T06:39:27.470Z,9.17
2017-07-16T06:41:59.812Z,10.10
2017-07-16T06:44:32.138Z,9.50
2017-07-16T06:47:04.590Z,10.90
2017-07-16T06:49:36.965Z,11.70
2017-07-16T06:52:09.437Z,12.37
2017-07-16T06:54:41.741Z,12.97
2017-07-16T06:57:14.145Z,13.37
2017-07-16T06:59:46.977Z,13.80
2017-07-16T07:02:18.924Z,13.13
2017-07-16T07:04:51.248Z,13.40
2017-07-16T07:07:23.647Z,12.50
2017-07-16T07:09:55.993Z,12.67
2017-07-16T07:12:28.306Z,13.10
2017-07-16T07:15:00.622Z,12.77
2017-07-16T07:17:33.005Z,14.20
2017-07-16T07:20:05.281Z,13.30
2017-07-16T07:22:37.661Z,12.27
2017-07-16T07:25:09.906Z,13.37
2017-07-16T07:27:42.419Z,13.97
2017-07-16T07:30:14.853Z,13.60
2017-07-16T07:32:47.244Z,13.60
2017-07-16T07:35:19.698Z,13.80
2017-07-16T07:37:52.078Z,12.30
2017-07-16T07:40:24.646Z,13.47
2017-07-16T07:42:56.760Z,13.63
2017-07-16T07:45:29.089Z,12.63
2017-07-16T07:48:01.459Z,12.13
2017-07-16T07:50:33.900Z,10.00
2017-07-16T07:53:06.332Z,11.43
2017-07-16T07:55:38.686Z,10.80
2017-07-16T07:58:11.121Z,9.90
2017-07-16T08:00:43.440Z,11.10
2017-07-16T08:03:15.934Z,10.57
2017-07-16T08:05:48.195Z,9.53
2017-07-16T08:08:20.513Z,9.30
2017-07-16T08:10:52.785Z,9.80
2017-07-16T08:13:25.322Z,9.50
2017-07-16T08:15:57.607Z,9.07
2017-07-16T08:18:29.974Z,11.77
2017-07-16T08:21:02.722Z,8.00
2017-07-16T08:23:34.855Z,8.07
2017-07-16T08:26:07.149Z,8.10
2017-07-16T08:28:39.559Z,8.83
2017-07-16T08:31:11.933Z,9.30
2017-07-16T08:33:44.407Z,7.00
2017-07-16T08:36:16.707Z,8.43
2017-07-16T08:38:49.089Z,8.90
2017-07-16T08:41:21.410Z,8.93
2017-07-16T08:43:53.777Z,8.83
2017-07-16T08:46:26.162Z,10.60
2017-07-16T08:48:58.434Z,10.70
2017-07-16T08:51:30.750Z,10.63
2017-07-16T08:54:03.272Z,10.80
2017-07-16T08:56:35.446Z,11.57
2017-07-16T08:59:07.733Z,11.87
2017-07-16T09:01:39.979Z,13.10
2017-07-16T09:04:13.319Z,12.70
2017-07-16T09:06:45.759Z,16.60
2017-07-16T09:09:18.068Z,14.10
2017-07-16T09:11:50.337Z,15.00
2017-07-16T09:14:22.632Z,16.13
2017-07-16T09:16:54.879Z,14.67
2017-07-16T09:19:27.271Z,16.40
2017-07-16T09:21:59.598Z,16.47
2017-07-16T09:24:32.036Z,15.93
2017-07-16T09:27:04.310Z,16.60
2017-07-16T09:29:36.645Z,17.50
2017-07-16T09:32:08.813Z,16.60
2017-07-16T09:34:41.085Z,19.63
2017-07-16T09:37:13.305Z,19.20
2017-07-16T09:39:45.623Z,18.57
2017-07-16T09:42:17.893Z,19.27
2017-07-16T09:44:50.173Z,19.40
2017-07-16T09:47:22.541Z,21.83
2017-07-16T09:49:54.894Z,19.90
2017-07-16T09:52:27.304Z,19.20
2017-07-16T09:54:59.762Z,16.63
2017-07-16T09:57:32.131Z,17.20
2017-07-16T10:00:04.517Z,18.60
2017-07-16T10:02:36.812Z,17.30
2017-07-16T10:05:09.076Z,18.17
2017-07-16T10:07:41.423Z,19.10
2017-07-16T10:10:13.706Z,18.90
2017-07-16T10:12:46.051Z,19.93
2017-07-16T10:15:18.405Z,19.30
2017-07-16T10:17:50.815Z,20.90
2017-07-16T10:20:23.452Z,20.53
2017-07-16T10:22:55.522Z,20.40
2017-07-16T10:25:27.805Z,21.97
2017-07-16T10:27:59.969Z,20.90
2017-07-16T10:30:32.197Z,21.60
2017-07-16T10:33:04.662Z,22.77
2017-07-16T10:35:36.746Z,21.57
2017-07-16T10:38:09.181Z,21.17
2017-07-16T10:40:41.155Z,21.67
2017-07-16T10:43:13.494Z,24.80
2017-07-16T10:45:45.769Z,24.13
2017-07-16T10:48:18.151Z,20.77
2017-07-16T10:50:51.343Z,20.90
2017-07-16T10:53:23.919Z,23.30
2017-07-16T10:55:56.202Z,22.73
2017-07-16T10:58:28.549Z,23.23
2017-07-16T11:01:01.486Z,27.00
2017-07-16T11:03:34.412Z,23.37
2017-07-16T11:06:07.073Z,24.67
2017-07-16T11:08:38.930Z,24.90
2017-07-16T11:11:11.475Z,26.60
2017-07-16T11:13:43.901Z,26.93
2017-07-16T11:16:16.346Z,23.27
2017-07-16T11:18:48.651Z,26.77
2017-07-16T11:21:21.146Z,23.37
2017-07-16T11:23:53.518Z,21.97
2017-07-16T11:26:26.274Z,24.77
2017-07-16T11:28:58.132Z,20.10
2017-07-16T11:31:30.376Z,18.57
2017-07-16T11:34:02.750Z,24.13
2017-07-16T11:36:35.174Z,22.33
2017-07-16T11:39:07.402Z,19.47
2017-07-16T11:41:39.745Z,18.27
2017-07-16T11:44:12.181Z,20.80
2017-07-16T11:46:44.552Z,21.57
2017-07-16T11:49:16.781Z,23.10
2017-07-16T11:51:49.297Z,20.20
2017-07-16T11:54:21.639Z,17.67
2017-07-16T11:56:54.091Z,22.60
2017-07-16T11:59:26.350Z,19.20
2017-07-16T12:01:58.667Z,20.00
2017-07-16T12:04:31.016Z,18.07
2017-07-16T12:07:03.424Z,16.30
2017-07-16T12:09:35.698Z,18.40
2017-07-16T12:12:07.906Z,19.53
2017-07-16T12:14:40.290Z,17.03
2017-07-16T12:17:12.473Z,17.63
2017-07-16T12:19:44.811Z,17.43
2017-07-16T12:22:17.157Z,18.50
2017-07-16T12:24:49.471Z,17.17
2017-07-16T12:27:21.741Z,16.63
2017-07-16T12:29:54.025Z,17.23
2017-07-16T12:32:26.324Z,17.80
2017-07-16T12:34:58.677Z,19.53
2017-07-16T12:37:31.214Z,18.13
2017-07-16T12:40:03.481Z,19.30
2017-07-16T12:42:35.913Z,17.73
2017-07-16T12:45:08.234Z,16.03
2017-07-16T12:47:40.753Z,17.97
2017-07-16T12:50:12.992Z,18.10
2017-07-16T12:52:45.507Z,19.30
2017-07-16T12:55:17.946Z,17.90
2017-07-16T12:57:50.249Z,19.83
2017-07-16T13:00:22.665Z,19.93
2017-07-16T13:02:55.013Z,20.50
2017-07-16T13:05:27.447Z,20.03
2017-07-16T13:08:00.128Z,21.30
2017-07-16T13:10:31.989Z,21.80
2017-07-16T13:13:04.277Z,22.33
2017-07-16T13:15:36.539Z,19.60
2017-07-16T13:18:09.837Z,20.80
2017-07-16T13:20:42.522Z,21.23
2017-07-16T13:23:14.989Z,22.83
2017-07-16T13:25:47.193Z,21.00
2017-07-16T13:28:19.751Z,22.50
2017-07-16T13:30:52.154Z,22.83
2017-07-16T13:33:24.578Z,20.57
2017-07-16T13:35:56.952Z,21.63
2017-07-16T13:38:29.382Z,22.13
2017-07-16T13:41:01.665Z,22.47
2017-07-16T13:43:34.093Z,23.00
2017-07-16T13:46:06.410Z,22.30
2017-07-16T13:48:38.630Z,21.97
2017-07-16T13:51:11.349Z,20.80
2017-07-16T13:53:43.476Z,20.63
2017-07-16T13:56:15.894Z,21.23
2017-07-16T13:58:48.350Z,21.20
2017-07-16T14:01:20.774Z,19.80
2017-07-16T14:03:53.132Z,19.13
2017-07-16T14:06:25.591Z,20.90
2017-07-16T14:08:58.175Z,19.87
2017-07-16T14:11:30.300Z,19.97
2017-07-16T14:14:02.942Z,18.80
2017-07-16T14:16:35.310Z,20.47
2017-07-16T14:19:07.697Z,18.23
2017-07-16T14:21:40.394Z,19.73
2017-07-16T14:24:12.548Z,16.70
2017-07-16T14:26:44.991Z,18.67
2017-07-16T14:29:17.500Z,16.93
2017-07-16T14:31:49.778Z,18.63
2017-07-16T14:34:22.339Z,15.70
2017-07-16T14:36:54.551Z,16.13
2017-07-16T14:39:26.959Z,14.20
2017-07-16T14:41:59.292Z,14.20
2017-07-16T14:44:32.177Z,14.50
2017-07-16T14:47:04.097Z,13.10
2017-07-16T14:49:36.406Z,15.33
2017-07-16T14:52:08.670Z,15.07
2017-07-16T14:54:41.028Z,15.63
2017-07-16T14:57:13.462Z,15.87
2017-07-16T14:59:45.806Z,15.57
2017-07-16T15:02:18.320Z,14.23
2017-07-16T15:04:50.578Z,15.60
2017-07-16T15:07:22.950Z,15.03
2017-07-16T15:09:55.486Z,15.87
2017-07-16T15:12:27.773Z,17.60
2017-07-16T15:15:00.476Z,17.27
2017-07-16T15:17:32.723Z,15.63
2017-07-16T15:20:05.116Z,16.50
2017-07-16T15:22:37.552Z,16.80
2017-07-16T15:25:09.878Z,17.60
2017-07-16T15:27:42.291Z,21.03
2017-07-16T15:30:14.701Z,16.90
2017-07-16T15:32:47.101Z,16.90
2017-07-16T15:35:19.385Z,16.80
2017-07-16T15:37:52.973Z,17.30
2017-07-16T15:40:25.235Z,17.57
2017-07-16T15:42:57.556Z,15.67
2017-07-16T15:45:29.982Z,16.83
2017-07-16T15:48:02.308Z,15.60
2017-07-16T15:50:34.813Z,19.03
2017-07-16T15:53:06.802Z,18.47
2017-07-16T15:55:39.145Z,17.90
2017-07-16T15:58:11.407Z,17.30
2017-07-16T16:00:43.878Z,19.57
2017-07-16T16:03:16.159Z,19.23
2017-07-16T16:05:48.644Z,18.97
2017-07-16T16:08:21.126Z,18.67
2017-07-16T16:10:53.593Z,18.93
2017-07-16T16:13:25.807Z,21.67
2017-07-16T16:15:58.102Z,19.63
2017-07-16T16:18:30.422Z,18.87
2017-07-16T16:21:02.792Z,19.40
2017-07-16T16:23:35.061Z,19.20
2017-07-16T16:26:07.553Z,18.33
2017-07-16T16:28:40.742Z,19.90
2017-07-16T16:31:13.201Z,19.70
2017-07-16T16:33:45.456Z,18.83
2017-07-16T16:36:17.799Z,18.77
2017-07-16T16:38:50.282Z,18.93
2017-07-16T16:41:22.488Z,20.00
2017-07-16T16:43:54.798Z,20.20
2017-07-16T16:46:27.192Z,20.20
2017-07-16T16:48:59.517Z,17.80
2017-07-16T16:51:32.024Z,18.43
2017-07-16T16:54:04.238Z,20.80
2017-07-16T16:56:36.841Z,20.53
2017-07-16T16:59:09.173Z,23.63
2017-07-16T17:01:41.615Z,19.00
2017-07-16T17:04:13.822Z,18.03
2017-07-16T17:06:46.182Z,19.40
2017-07-16T17:09:18.613Z,19.07
2017-07-16T17:11:51.007Z,17.67
2017-07-16T17:14:23.450Z,17.60
2017-07-16T17:16:55.948Z,16.73
2017-07-16T17:19:28.206Z,17.33
2017-07-16T17:22:00.605Z,18.20
2017-07-16T17:24:32.921Z,17.30
2017-07-16T17:27:05.548Z,18.67
2017-07-16T17:29:37.920Z,19.90
2017-07-16T17:32:10.357Z,18.73
2017-07-16T17:34:42.624Z,17.37
2017-07-16T17:37:15.024Z,19.07
2017-07-16T17:39:47.295Z,19.47
2017-07-16T17:42:20.720Z,18.27
2017-07-16T17:44:53.225Z,20.57
2017-07-16T17:47:25.654Z,18.67
2017-07-16T17:49:57.994Z,19.77
2017-07-16T17:52:30.613Z,21.90
2017-07-16T17:55:02.946Z,19.70
2017-07-16T17:57:35.361Z,23.80
2017-07-16T18:00:07.634Z,22.60
2017-07-16T18:02:41.034Z,26.33
2017-07-16T18:05:13.458Z,21.73
2017-07-16T18:07:45.813Z,22.23
2017-07-16T18:10:18.033Z,23.27
2017-07-16T18:12:50.605Z,22.57
2017-07-16T18:15:23.042Z,19.43
2017-07-16T18:17:55.336Z,20.23
2017-07-16T18:20:27.603Z,19.90
2017-07-16T18:22:59.978Z,22.40
2017-07-16T18:25:32.254Z,18.80
2017-07-16T18:28:04.625Z,12.67
2017-07-16T18:30:37.082Z,14.97
2017-07-16T18:33:09.657Z,19.23
2017-07-16T18:35:42.017Z,16.07
2017-07-16T18:38:14.540Z,20.87
2017-07-16T18:40:46.794Z,19.53
2017-07-16T18:43:19.121Z,23.30
2017-07-16T18:45:51.437Z,27.10
2017-07-16T18:48:23.961Z,33.00
2017-07-16T18:50:56.392Z,32.17
2017-07-16T18:53:28.863Z,31.60
2017-07-16T18:56:01.336Z,36.00
2017-07-16T18:58:33.893Z,34.13
2017-07-16T19:01:07.093Z,34.10
2017-07-16T19:03:39.748Z,31.53
2017-07-16T19:06:12.033Z,33.40
2017-07-16T19:08:44.542Z,28.40
2017-07-16T19:11:16.845Z,32.47
2017-07-16T19:13:50.161Z,28.70
2017-07-16T19:16:22.649Z,32.13
2017-07-16T19:18:54.986Z,27.57
2017-07-16T19:21:27.394Z,26.37
2017-07-16T19:23:59.717Z,26.57
2017-07-16T19:26:32.117Z,29.50
2017-07-16T19:29:04.552Z,28.87
2017-07-16T19:31:37.009Z,29.47
2017-07-16T19:34:10.417Z,27.20
2017-07-16T19:36:42.998Z,29.20
2017-07-16T19:39:15.522Z,23.97
2017-07-16T19:41:48.042Z,24.43
2017-07-16T19:44:20.590Z,23.80
2017-07-16T19:46:52.906Z,20.83
2017-07-16T19:49:25.323Z,16.23
2017-07-16T19:51:57.720Z,17.10
2017-07-16T19:54:30.247Z,16.60
2017-07-16T19:57:02.579Z,15.00
2017-07-16T19:59:34.901Z,14.23
2017-07-16T20:02:07.505Z,14.20
2017-07-16T20:04:39.711Z,16.10
2017-07-16T20:07:12.026Z,14.53
2017-07-16T20:09:44.486Z,14.63
2017-07-16T20:12:16.813Z,12.60
2017-07-16T20:14:49.292Z,17.93
2017-07-16T20:17:21.701Z,13.50
2017-07-16T20:19:54.536Z,12.20
2017-07-16T20:22:26.484Z,13.13
2017-07-16T20:24:58.817Z,13.90
2017-07-16T20:27:31.058Z,11.33
2017-07-16T20:30:03.485Z,13.10
2017-07-16T20:32:35.934Z,14.33
2017-07-16T20:35:08.270Z,14.90
2017-07-16T20:37:40.572Z,14.20
2017-07-16T20:40:13.166Z,15.70
2017-07-16T20:42:45.533Z,14.43
2017-07-16T20:45:17.972Z,11.93
2017-07-16T20:47:50.402Z,14.20
2017-07-16T20:50:22.832Z,13.47
2017-07-16T20:52:55.964Z,13.90
2017-07-16T20:55:28.686Z,16.70
2017-07-16T20:58:01.165Z,15.10
2017-07-16T21:00:33.385Z,13.83
2017-07-16T21:03:05.721Z,14.33
2017-07-16T21:05:38.213Z,14.47
2017-07-16T21:08:10.599Z,13.77
2017-07-16T21:10:42.892Z,13.10
2017-07-16T21:13:15.608Z,14.03
2017-07-16T21:15:47.797Z,14.17
2017-07-16T21:18:20.210Z,14.00
2017-07-16T21:20:53.753Z,15.00
2017-07-16T21:23:25.665Z,12.47
2017-07-16T21:25:57.934Z,13.13
2017-07-16T21:28:30.277Z,9.07
2017-07-16T21:31:02.797Z,10.23
2017-07-16T21:33:35.253Z,9.60
2017-07-16T21:36:07.676Z,9.50
2017-07-16T21:38:40.358Z,9.57
2017-07-16T21:41:12.606Z,9.10
2017-07-16T21:43:44.961Z,10.03
2017-07-16T21:46:17.458Z,8.80
2017-07-16T21:48:50.064Z,9.37
2017-07-16T21:51:22.377Z,9.43
2017-07-16T21:53:55.070Z,8.87
2017-07-16T21:56:27.526Z,10.93
2017-07-16T21:58:59.893Z,8.87
2017-07-16T22:01:32.365Z,9.70
2017-07-16T22:04:04.653Z,8.90
2017-07-16T22:06:37.064Z,9.60
2017-07-16T22:09:09.393Z,8.50
2017-07-16T22:11:41.965Z,8.93
2017-07-16T22:14:14.336Z,9.87
2017-07-16T22:16:46.925Z,8.90
2017-07-16T22:19:19.374Z,8.67
2017-07-16T22:21:51.843Z,9.30
2017-07-16T22:24:24.204Z,9.47
2017-07-16T22:26:56.488Z,9.47
2017-07-16T22:29:28.785Z,9.37
2017-07-16T22:32:01.196Z,10.00
2017-07-16T22:34:33.539Z,10.27
2017-07-16T22:37:05.736Z,10.63
2017-07-16T22:39:38.091Z,10.57
2017-07-16T22:42:10.525Z,9.90
2017-07-16T22:44:42.940Z,9.83
2017-07-16T22:47:15.402Z,10.20
2017-07-16T22:49:47.786Z,14.40
2017-07-16T22:52:20.205Z,10.77
2017-07-16T22:54:52.534Z,10.03
2017-07-16T22:57:24.850Z,12.30
2017-07-16T22:59:57.278Z,11.30
2017-07-16T23:02:29.677Z,10.00
2017-07-16T23:05:02.289Z,11.17
2017-07-16T23:07:34.497Z,9.87
2017-07-16T23:10:07.052Z,10.93
2017-07-16T23:12:39.458Z,9.90
2017-07-16T23:15:11.893Z,10.60
2017-07-16T23:17:44.417Z,12.60
2017-07-16T23:20:16.944Z,11.17
2017-07-16T23:22:49.353Z,10.53
2017-07-16T23:25:21.754Z,10.70
2017-07-16T23:27:54.302Z,11.83
2017-07-16T23:30:26.575Z,10.60
2017-07-16T23:32:58.878Z,11.30
2017-07-16T23:35:31.300Z,11.10
2017-07-16T23:38:03.806Z,12.87
2017-07-16T23:40:36.168Z,11.07
2017-07-16T23:43:08.648Z,11.07
2017-07-16T23:45:41.111Z,10.70
2017-07-16T23:48:13.393Z,13.00
2017-07-16T23:50:45.856Z,11.10
2017-07-16T23:53:18.264Z,14.50
2017-07-16T23:55:50.713Z,11.37
2017-07-16T23:58:23.469Z,11.00
